createdAt,value
2019-04-27T00:00:53.486Z,7.10
2019-04-27T00:05:55.896Z,9.30
2019-04-27T00:10:59.906Z,6.47
2019-04-27T00:16:05.543Z,6.73
2019-04-27T00:21:03.768Z,7.90
2019-04-27T00:26:05.850Z,6.47
2019-04-27T00:31:07.088Z,11.07
2019-04-27T00:36:08.610Z,5.83
2019-04-27T00:41:09.854Z,7.27
2019-04-27T00:46:11.096Z,6.40
2019-04-27T00:51:13.058Z,6.00
2019-04-27T00:56:15.527Z,6.37
2019-04-27T01:01:16.976Z,7.13
2019-04-27T01:06:18.347Z,6.07
2019-04-27T01:11:20.036Z,6.93
2019-04-27T01:16:24.213Z,7.07
2019-04-27T01:21:25.751Z,4.90
2019-04-27T01:26:28.618Z,5.10
2019-04-27T01:31:30.232Z,7.40
2019-04-27T01:36:31.908Z,6.80
2019-04-27T01:41:33.464Z,7.07
2019-04-27T01:46:34.720Z,6.17
2019-04-27T01:51:35.960Z,5.47
2019-04-27T01:56:37.340Z,5.40
2019-04-27T02:01:39.036Z,7.10
2019-04-27T02:06:40.688Z,6.03
2019-04-27T02:11:42.020Z,6.70
2019-04-27T02:16:43.580Z,6.40
2019-04-27T02:21:45.189Z,10.30
2019-04-27T02:26:46.484Z,5.40
2019-04-27T02:31:50.040Z,13.10
2019-04-27T02:36:51.018Z,16.90
2019-04-27T02:41:52.221Z,8.43
2019-04-27T02:46:53.799Z,6.93
2019-04-27T02:51:55.034Z,8.87
2019-04-27T02:56:56.307Z,8.83
2019-04-27T03:02:00.796Z,10.77
2019-04-27T03:07:01.241Z,10.50
2019-04-27T03:12:03.233Z,10.17
2019-04-27T03:17:04.750Z,11.03
2019-04-27T03:22:06.451Z,9.50
2019-04-27T03:27:09.692Z,12.63
2019-04-27T03:32:12.448Z,7.30
2019-04-27T03:37:14.544Z,8.17
2019-04-27T03:42:15.799Z,8.97
2019-04-27T03:47:19.510Z,8.33
2019-04-27T03:52:20.720Z,9.73
2019-04-27T03:57:24.010Z,9.97
2019-04-27T04:02:25.398Z,8.47
2019-04-27T04:07:27.087Z,12.37
2019-04-27T04:12:30.271Z,13.07
2019-04-27T04:17:31.939Z,6.47
2019-04-27T04:22:33.156Z,8.50
2019-04-27T04:27:34.529Z,10.47
2019-04-27T04:32:39.268Z,4.33
2019-04-27T04:37:40.421Z,11.85
2019-04-27T04:42:42.392Z,7.73
2019-04-27T04:47:43.699Z,7.40
2019-04-27T04:52:45.262Z,7.60
2019-04-27T04:57:49.115Z,7.87
2019-04-27T05:02:50.198Z,6.07
2019-04-27T05:07:51.427Z,7.30
2019-04-27T05:12:52.752Z,7.47
2019-04-27T05:17:53.984Z,9.00
2019-04-27T05:22:55.253Z,11.50
2019-04-27T05:27:56.514Z,11.00
2019-04-27T05:32:58.561Z,16.80
2019-04-27T05:38:00.910Z,10.30
2019-04-27T05:43:03.251Z,12.50
2019-04-27T05:48:05.145Z,11.57
2019-04-27T05:53:08.660Z,12.10
2019-04-27T05:58:10.010Z,9.60
2019-04-27T06:03:11.291Z,10.40
2019-04-27T06:08:12.981Z,9.83
2019-04-27T06:13:14.309Z,8.70
2019-04-27T06:18:15.656Z,7.33
2019-04-27T06:23:18.651Z,6.67
2019-04-27T06:28:20.732Z,8.20
2019-04-27T06:33:32.070Z,8.80
2019-04-27T06:38:25.450Z,7.10
2019-04-27T06:43:26.908Z,8.73
2019-04-27T06:48:29.608Z,8.17
2019-04-27T06:53:31.748Z,10.77
2019-04-27T06:58:33.450Z,12.57
2019-04-27T07:03:35.243Z,12.03
2019-04-27T07:08:36.625Z,14.20
2019-04-27T07:13:39.060Z,17.60
2019-04-27T07:18:40.489Z,5.50
2019-04-27T07:23:42.183Z,5.53
2019-04-27T07:28:43.832Z,6.50
2019-04-27T07:33:45.193Z,5.67
2019-04-27T07:38:46.547Z,6.10
2019-04-27T07:43:49.378Z,5.23
2019-04-27T07:48:50.946Z,7.40
2019-04-27T07:53:52.847Z,7.17
2019-04-27T07:58:54.206Z,10.77
2019-04-27T08:03:56.727Z,10.17
2019-04-27T08:08:59.339Z,12.33
2019-04-27T08:14:00.800Z,18.07
2019-04-27T08:19:02.413Z,19.17
2019-04-27T08:24:03.928Z,20.57
2019-04-27T08:29:05.425Z,26.17
2019-04-27T08:34:08.557Z,22.57
2019-04-27T08:39:10.311Z,15.87
2019-04-27T08:44:11.739Z,23.57
2019-04-27T08:49:13.259Z,21.10
2019-04-27T08:54:15.605Z,24.40
2019-04-27T08:59:17.114Z,24.40
2019-04-27T09:04:20.046Z,22.50
2019-04-27T09:09:22.091Z,16.67
2019-04-27T09:14:23.352Z,18.07
2019-04-27T09:19:25.061Z,23.73
2019-04-27T09:24:26.535Z,32.42
2019-04-27T09:29:29.822Z,27.98
2019-04-27T09:34:31.444Z,20.37
2019-04-27T09:39:33.239Z,16.48
2019-04-27T09:44:34.736Z,24.15
2019-04-27T09:49:38.111Z,19.30
2019-04-27T09:54:39.630Z,22.67
2019-04-27T09:59:40.880Z,16.65
2019-04-27T10:04:42.547Z,15.25
2019-04-27T10:09:45.504Z,16.57
2019-04-27T10:14:47.838Z,15.53
2019-04-27T10:19:49.753Z,12.63
2019-04-27T10:24:51.123Z,20.05
2019-04-27T10:29:52.889Z,14.15
2019-04-27T10:34:54.370Z,20.08
2019-04-27T10:39:56.103Z,15.55
2019-04-27T10:44:57.555Z,17.77
2019-04-27T10:49:58.997Z,12.18
2019-04-27T10:55:00.731Z,17.45
2019-04-27T11:00:02.218Z,17.85
2019-04-27T11:05:04.644Z,15.88
2019-04-27T11:10:07.560Z,15.13
2019-04-27T11:15:09.341Z,15.00
2019-04-27T11:20:10.870Z,13.08
2019-04-27T11:25:12.287Z,16.12
2019-04-27T11:30:15.659Z,9.28
2019-04-27T11:35:17.147Z,11.80
2019-04-27T11:40:18.912Z,12.70
2019-04-27T11:45:20.380Z,6.05
2019-04-27T11:50:21.644Z,4.45
2019-04-27T11:55:23.399Z,8.90
2019-04-27T12:00:25.155Z,6.97
2019-04-27T12:05:26.782Z,4.42
2019-04-27T12:10:28.380Z,7.05
2019-04-27T12:15:30.041Z,6.58
2019-04-27T12:20:32.025Z,9.53
2019-04-27T12:25:33.651Z,14.53
2019-04-27T12:30:34.971Z,13.20
2019-04-27T12:35:36.922Z,11.67
2019-04-27T12:40:38.477Z,14.10
2019-04-27T12:45:43.446Z,11.85
2019-04-27T12:50:43.809Z,15.38
2019-04-27T12:55:46.512Z,9.25
2019-04-27T13:00:48.580Z,5.28
2019-04-27T13:05:50.140Z,7.70
2019-04-27T13:10:51.648Z,6.92
2019-04-27T13:15:53.203Z,11.78
2019-04-27T13:20:54.681Z,10.70
2019-04-27T13:25:56.521Z,7.90
2019-04-27T13:30:58.135Z,13.38
2019-04-27T13:35:59.483Z,15.15
2019-04-27T13:41:00.997Z,13.13
2019-04-27T13:46:02.949Z,21.13
2019-04-27T13:51:06.513Z,14.47
2019-04-27T13:56:08.017Z,12.35
2019-04-27T14:01:09.407Z,10.78
2019-04-27T14:06:10.938Z,14.65
2019-04-27T14:11:12.521Z,13.62
2019-04-27T14:16:13.922Z,16.10
2019-04-27T14:21:15.433Z,12.90
2019-04-27T14:26:18.469Z,15.50
2019-04-27T14:31:20.454Z,17.25
2019-04-27T14:36:22.681Z,19.27
2019-04-27T14:41:23.954Z,20.25
2019-04-27T14:46:25.206Z,14.85
2019-04-27T14:51:26.786Z,22.13
2019-04-27T14:56:28.506Z,14.60
2019-04-27T15:01:29.867Z,23.67
2019-04-27T15:06:31.855Z,13.97
2019-04-27T15:11:34.657Z,17.48
2019-04-27T15:16:37.926Z,13.72
2019-04-27T15:21:41.777Z,11.80
2019-04-27T15:26:43.152Z,12.23
2019-04-27T15:31:44.555Z,13.53
2019-04-27T15:36:45.945Z,11.22
2019-04-27T15:41:48.535Z,15.43
2019-04-27T15:46:50.108Z,16.90
2019-04-27T15:51:54.774Z,18.07
2019-04-27T15:56:54.904Z,15.43
2019-04-27T16:01:56.590Z,11.20
2019-04-27T16:06:58.273Z,12.87
2019-04-27T16:12:09.966Z,12.97
2019-04-27T16:17:08.075Z,11.07
2019-04-27T16:22:08.179Z,9.20
2019-04-27T16:27:09.889Z,10.67
2019-04-27T16:32:13.052Z,17.60
2019-04-27T16:37:18.935Z,10.67
2019-04-27T16:42:18.666Z,11.20
2019-04-27T16:47:24.338Z,12.03
2019-04-27T16:52:23.542Z,8.57
2019-04-27T16:57:24.961Z,11.00
2019-04-27T17:02:26.229Z,14.70
2019-04-27T17:07:30.226Z,13.03
2019-04-27T17:12:34.858Z,13.90
2019-04-27T17:17:34.404Z,13.63
2019-04-27T17:22:35.632Z,9.30
2019-04-27T17:27:38.287Z,8.63
2019-04-27T17:32:39.653Z,9.20
2019-04-27T17:37:41.066Z,10.87
2019-04-27T17:42:42.658Z,10.93
2019-04-27T17:47:44.130Z,6.90
2019-04-27T17:52:49.774Z,7.73
2019-04-27T17:57:49.098Z,14.13
2019-04-27T18:02:50.531Z,12.03
2019-04-27T18:07:52.090Z,14.07
2019-04-27T18:12:53.625Z,9.87
2019-04-27T18:17:55.202Z,19.00
2019-04-27T18:22:58.038Z,11.57
2019-04-27T18:27:59.888Z,12.50
2019-04-27T18:33:02.231Z,9.93
2019-04-27T18:38:05.487Z,10.37
2019-04-27T18:43:12.176Z,7.43
2019-04-27T18:48:13.855Z,12.47
2019-04-27T18:53:16.386Z,9.83
2019-04-27T18:58:19.282Z,11.33
2019-04-27T19:03:20.631Z,12.67
2019-04-27T19:08:22.174Z,13.13
2019-04-27T19:13:23.408Z,16.07
2019-04-27T19:18:24.640Z,11.83
2019-04-27T19:23:26.179Z,10.13
2019-04-27T19:28:28.298Z,7.67
2019-04-27T19:33:31.900Z,9.90
2019-04-27T19:38:33.375Z,5.53
2019-04-27T19:43:34.751Z,7.10
2019-04-27T19:48:36.307Z,10.23
2019-04-27T19:53:39.385Z,9.60
2019-04-27T19:58:40.935Z,11.90
2019-04-27T20:03:42.940Z,9.13
2019-04-27T20:08:44.785Z,11.17
2019-04-27T20:13:46.438Z,12.63
2019-04-27T20:18:48.289Z,17.33
2019-04-27T20:23:50.697Z,16.67
2019-04-27T20:28:52.539Z,15.30
2019-04-27T20:33:54.164Z,12.13
2019-04-27T20:38:55.748Z,11.07
2019-04-27T20:43:57.151Z,11.27
2019-04-27T20:48:58.615Z,11.63
2019-04-27T20:54:01.682Z,12.23
2019-04-27T20:59:03.438Z,13.00
2019-04-27T21:04:05.401Z,12.10
2019-04-27T21:09:12.821Z,16.43
2019-04-27T21:14:14.338Z,12.43
2019-04-27T21:19:15.623Z,12.23
2019-04-27T21:24:17.017Z,16.90
2019-04-27T21:29:18.409Z,14.77
2019-04-27T21:34:19.863Z,15.63
2019-04-27T21:39:21.775Z,20.07
2019-04-27T21:44:23.140Z,15.33
2019-04-27T21:49:24.533Z,19.80
2019-04-27T21:54:26.400Z,24.37
2019-04-27T21:59:29.253Z,17.67
2019-04-27T22:04:31.509Z,22.67
2019-04-27T22:09:33.387Z,22.30
2019-04-27T22:14:34.658Z,26.70
2019-04-27T22:19:35.909Z,22.63
2019-04-27T22:24:37.291Z,12.63
2019-04-27T22:29:39.121Z,11.67
2019-04-27T22:34:41.363Z,12.13
2019-04-27T22:39:43.014Z,14.93
2019-04-27T22:44:44.408Z,12.00
2019-04-27T22:49:45.816Z,10.73
2019-04-27T22:54:47.154Z,6.93
2019-04-27T22:59:48.402Z,8.40
2019-04-27T23:04:51.473Z,15.30
2019-04-27T23:09:52.872Z,13.87
2019-04-27T23:14:54.167Z,10.33
2019-04-27T23:19:55.522Z,8.57
2019-04-27T23:24:57.116Z,6.77
2019-04-27T23:29:58.670Z,3.80
2019-04-27T23:34:59.933Z,8.40
2019-04-27T23:40:02.934Z,7.93
2019-04-27T23:45:05.432Z,7.33
2019-04-27T23:50:06.782Z,6.57
2019-04-27T23:55:08.030Z,10.00
